Time;durP1;ratioP1;P1;durP2;ratioP2;P2;SDS_P1;SDS_P2;PMS_P1;PMS_P2;Temp;Humidity;BMP_temperature;BMP_pressure;BME280_temperature;BME280_humidity;BME280_pressure;Samples;Min_cycle;Max_cycle;Signal;HPM_P1;HPM_P2
2021/11/17 02:26:57;;;;;;;0.00;0.00;;;-0.20;60.20;;;;;;5013709;28;20033;-77
2021/11/17 02:29:44;;;;;;;0.00;0.00;;;-0.20;60.30;;;;;;5013716;28;20107;-77
2021/11/17 02:32:34;;;;;;;0.00;0.00;;;-0.20;60.30;;;;;;5012442;28;20033;-77
2021/11/17 02:35:19;;;;;;;0.00;0.00;;;-0.20;60.50;;;;;;5013825;28;20383;-77
2021/11/17 02:37:56;;;;;;;0.00;0.00;;;-0.20;60.40;;;;;;5013746;28;20033;-77
2021/11/17 02:40:46;;;;;;;0.10;0.10;;;-0.20;60.60;;;;;;5014044;28;20054;-77
2021/11/17 02:43:31;;;;;;;0.00;0.00;;;-0.20;60.70;;;;;;5016149;28;20534;-77
2021/11/17 02:46:24;;;;;;;0.00;0.00;;;-0.20;60.70;;;;;;5016390;28;20125;-77
2021/11/17 02:49:20;;;;;;;0.00;0.00;;;-0.20;60.70;;;;;;5017490;28;20030;-77
2021/11/17 02:51:58;;;;;;;0.00;0.00;;;-0.20;60.70;;;;;;4999988;28;20121;-77
2021/11/17 02:54:52;;;;;;;0.00;0.00;;;-0.20;60.60;;;;;;5017406;28;20026;-77
2021/11/17 02:57:49;;;;;;;0.00;0.00;;;-0.20;61.20;;;;;;5016392;28;20072;-77
2021/11/17 03:00:39;;;;;;;0.00;0.00;;;-0.20;60.60;;;;;;5009202;28;20044;-77
2021/11/17 03:03:20;;;;;;;0.00;0.00;;;-0.20;60.50;;;;;;5017136;28;20018;-76
2021/11/17 03:05:51;;;;;;;0.00;0.00;;;-0.20;60.50;;;;;;5017234;28;20113;-77
2021/11/17 03:08:33;;;;;;;0.00;0.00;;;-0.20;60.50;;;;;;5016850;28;20113;-77
2021/11/17 03:11:12;;;;;;;0.00;0.00;;;-0.20;60.50;;;;;;5017181;28;20030;-77
2021/11/17 03:13:49;;;;;;;0.00;0.00;;;-0.20;60.50;;;;;;5016987;28;20459;-77
2021/11/17 03:16:29;;;;;;;0.00;0.00;;;-0.20;60.50;;;;;;5017079;28;20368;-77
2021/11/17 03:19:29;;;;;;;0.00;0.00;;;-0.20;60.50;;;;;;5016979;28;20022;-77
2021/11/17 03:22:05;;;;;;;0.00;0.00;;;-0.20;60.60;;;;;;5016895;28;20033;-77
2021/11/17 03:24:40;;;;;;;0.00;0.00;;;-0.20;60.50;;;;;;5016832;28;20065;-77
2021/11/17 03:27:36;;;;;;;0.00;0.00;;;-0.30;60.60;;;;;;5016958;28;20030;-77
2021/11/17 03:30:21;;;;;;;0.00;0.00;;;-0.30;60.70;;;;;;5019825;28;20032;-77
2021/11/17 03:32:52;;;;;;;0.00;0.00;;;-0.30;60.80;;;;;;5033464;28;20220;-77
2021/11/17 03:35:39;;;;;;;0.00;0.00;;;-0.30;60.80;;;;;;5036281;28;20072;-77
2021/11/17 03:38:11;;;;;;;0.00;0.00;;;-0.30;60.80;;;;;;5036540;28;20030;-77
2021/11/17 03:41:18;;;;;;;0.00;0.00;;;-0.30;60.80;;;;;;5036107;28;20450;-77
2021/11/17 03:44:20;;;;;;;0.00;0.00;;;-0.30;60.90;;;;;;5035962;28;20498;-77
2021/11/17 03:47:07;;;;;;;0.00;0.00;;;-0.30;60.90;;;;;;5036310;28;20025;-77
2021/11/17 03:50:11;;;;;;;0.00;0.00;;;-0.40;60.80;;;;;;5036188;28;20033;-77
2021/11/17 03:52:53;;;;;;;0.00;0.00;;;-0.40;60.90;;;;;;5013299;28;20562;-77
2021/11/17 03:55:40;;;;;;;0.00;0.00;;;-0.50;60.90;;;;;;5034021;28;20038;-77
2021/11/17 03:58:39;;;;;;;0.00;0.00;;;-0.50;61.00;;;;;;5036531;28;20040;-77
2021/11/17 04:01:37;;;;;;;0.00;0.00;;;-0.50;61.20;;;;;;5035776;28;20501;-77
2021/11/17 04:04:18;;;;;;;0.00;0.00;;;-0.50;61.30;;;;;;5034150;28;20140;-77
2021/11/17 04:07:11;;;;;;;0.00;0.00;;;-0.60;61.20;;;;;;5035701;28;20021;-77
2021/11/17 04:09:40;;;;;;;0.00;0.00;;;-0.60;61.30;;;;;;5034585;28;20360;-77
2021/11/17 04:12:32;;;;;;;0.00;0.00;;;-0.60;61.40;;;;;;5035897;28;20025;-77
2021/11/17 04:15:27;;;;;;;0.00;0.00;;;-0.60;61.50;;;;;;5034690;28;20041;-77
2021/11/17 04:18:24;;;;;;;0.00;0.00;;;-0.60;61.40;;;;;;5033954;28;20037;-77
2021/11/17 04:20:52;;;;;;;0.00;0.00;;;-0.60;61.40;;;;;;5034941;28;20035;-77
2021/11/17 04:23:52;;;;;;;0.00;0.00;;;-0.70;61.30;;;;;;5035660;28;20032;-77
2021/11/17 04:26:35;;;;;;;0.00;0.00;;;-0.70;61.50;;;;;;5035670;28;20025;-77
2021/11/17 04:29:42;;;;;;;0.00;0.00;;;-0.70;61.40;;;;;;5034389;28;20410;-76
2021/11/17 04:32:25;;;;;;;0.00;0.00;;;-0.70;61.60;;;;;;5023079;28;20040;-77
2021/11/17 04:35:28;;;;;;;0.00;0.00;;;-0.70;61.60;;;;;;5035480;28;20049;-77
2021/11/17 04:38:14;;;;;;;0.00;0.00;;;-0.70;61.60;;;;;;5027171;28;20380;-76
2021/11/17 04:40:46;;;;;;;0.00;0.00;;;-0.70;61.60;;;;;;5034560;28;20041;-77
2021/11/17 04:43:36;;;;;;;0.00;0.00;;;-0.70;61.50;;;;;;5035273;28;20026;-77
2021/11/17 04:46:07;;;;;;;0.00;0.00;;;-0.70;61.50;;;;;;5035596;28;20037;-77
2021/11/17 04:48:54;;;;;;;0.00;0.00;;;-0.70;61.40;;;;;;5035110;28;20033;-77
2021/11/17 04:51:30;;;;;;;0.00;0.00;;;-0.60;61.50;;;;;;5035204;28;20079;-77
2021/11/17 04:54:20;;;;;;;0.20;0.00;;;-0.60;61.40;;;;;;5035404;28;20032;-77
2021/11/17 04:57:14;;;;;;;0.00;0.00;;;-0.60;61.50;;;;;;5034865;28;20478;-77
2021/11/17 04:59:42;;;;;;;0.00;0.00;;;-0.60;61.60;;;;;;5034883;28;20439;-77
2021/11/17 05:02:14;;;;;;;0.32;0.10;;;-0.70;61.60;;;;;;5034480;28;20032;-77
2021/11/17 05:05:07;;;;;;;0.00;0.00;;;-0.70;61.70;;;;;;5032068;28;20487;-77
2021/11/17 05:07:51;;;;;;;0.00;0.00;;;-0.70;61.80;;;;;;5035029;28;20111;-77
2021/11/17 05:10:23;;;;;;;0.70;0.00;;;-0.70;61.80;;;;;;5034894;28;20526;-77
2021/11/17 05:13:04;;;;;;;0.00;0.00;;;-0.70;61.80;;;;;;5034698;28;20379;-77
2021/11/17 05:15:41;;;;;;;0.00;0.00;;;-0.60;61.90;;;;;;5034497;28;20030;-76
2021/11/17 05:18:33;;;;;;;0.45;0.10;;;-0.50;62.00;;;;;;5033167;28;20029;-76
2021/11/17 05:21:23;;;;;;;0.00;0.00;;;-0.40;61.90;;;;;;5014982;28;20120;-76
2021/11/17 05:23:55;;;;;;;0.10;0.10;;;-0.20;61.70;;;;;;5034205;28;20045;-77
2021/11/17 05:26:46;;;;;;;0.10;0.10;;;-0.10;61.50;;;;;;5034445;28;20455;-77
2021/11/17 05:29:21;;;;;;;0.00;0.00;;;0.00;61.30;;;;;;5034403;28;20034;-77
2021/11/17 05:32:12;;;;;;;0.00;0.00;;;0.20;61.00;;;;;;5033036;28;20095;-77
2021/11/17 05:35:07;;;;;;;0.00;0.00;;;0.20;60.80;;;;;;5034221;28;20072;-76
2021/11/17 05:37:51;;;;;;;0.03;0.03;;;0.30;60.60;;;;;;5033220;28;20438;-77
2021/11/17 05:40:30;;;;;;;0.10;0.10;;;0.40;60.50;;;;;;5034091;28;20041;-76
2021/11/17 05:43:09;;;;;;;0.00;0.00;;;0.50;60.30;;;;;;5034088;28;20025;-77
2021/11/17 05:45:53;;;;;;;0.10;0.10;;;0.60;60.20;;;;;;5032820;28;20038;-74
2021/11/17 05:48:55;;;;;;;0.00;0.00;;;0.80;60.20;;;;;;5033939;28;20025;-77
2021/11/17 05:51:36;;;;;;;0.00;0.00;;;0.90;60.00;;;;;;5032723;28;20028;-76
2021/11/17 05:54:25;;;;;;;0.00;0.00;;;1.00;59.80;;;;;;5033817;28;20037;-76
2021/11/17 05:56:58;;;;;;;0.00;0.00;;;1.10;59.70;;;;;;5027686;28;20042;-78
2021/11/17 05:59:48;;;;;;;0.00;0.00;;;1.20;59.60;;;;;;5033557;28;20088;-77
2021/11/17 06:02:48;;;;;;;0.00;0.00;;;1.30;59.50;;;;;;5033396;28;20471;-77
2021/11/17 06:05:13;;;;;;;0.10;0.10;;;1.40;59.40;;;;;;5033463;28;20029;-77
2021/11/17 06:07:39;;;;;;;0.00;0.00;;;1.60;59.30;;;;;;5033391;28;20048;-77
2021/11/17 06:10:14;;;;;;;0.20;0.13;;;1.70;59.10;;;;;;5033896;28;20057;-77
2021/11/17 06:12:41;;;;;;;0.00;0.00;;;1.80;59.00;;;;;;5033171;28;20061;-76
2021/11/17 06:15:09;;;;;;;0.00;0.00;;;1.90;58.80;;;;;;5033147;28;20368;-77
2021/11/17 06:17:34;;;;;;;0.00;0.00;;;2.10;58.60;;;;;;5033068;28;20052;-77
2021/11/17 06:20:03;;;;;;;0.00;0.00;;;2.10;58.40;;;;;;5033634;28;20060;-77
2021/11/17 06:22:32;;;;;;;0.00;0.00;;;2.30;58.30;;;;;;5033194;28;20467;-77
2021/11/17 06:25:08;;;;;;;0.00;0.00;;;2.40;58.20;;;;;;5033306;28;20025;-77
2021/11/17 06:27:37;;;;;;;0.20;0.10;;;2.50;58.00;;;;;;5032750;28;20428;-77
2021/11/17 06:30:04;;;;;;;0.10;0.10;;;2.60;57.90;;;;;;5032230;28;20026;-76
2021/11/17 06:32:30;;;;;;;0.10;0.10;;;2.60;57.80;;;;;;5032487;28;20053;-77
2021/11/17 06:34:59;;;;;;;0.03;0.03;;;2.70;57.70;;;;;;5032942;28;20088;-77
2021/11/17 06:37:29;;;;;;;0.00;0.00;;;2.70;57.60;;;;;;5051995;28;21374;-77
2021/11/17 06:40:00;;;;;;;0.00;0.00;;;2.80;57.50;;;;;;5052187;28;20071;-77
2021/11/17 06:42:32;;;;;;;0.00;0.00;;;2.80;57.40;;;;;;5051382;28;20028;-76
2021/11/17 06:45:00;;;;;;;0.00;0.00;;;2.80;57.40;;;;;;5049675;28;20021;-76
2021/11/17 06:47:26;;;;;;;0.00;0.00;;;2.90;57.30;;;;;;5051709;28;20391;-76
2021/11/17 06:49:53;;;;;;;0.00;0.00;;;3.00;57.10;;;;;;5050118;28;20017;-77
2021/11/17 06:52:21;;;;;;;0.00;0.00;;;3.10;57.00;;;;;;5051668;28;20051;-77
2021/11/17 06:54:46;;;;;;;0.00;0.00;;;3.30;56.90;;;;;;5051697;28;20033;-76
2021/11/17 06:57:12;;;;;;;0.03;0.00;;;3.50;56.70;;;;;;5051448;28;20017;-76
2021/11/17 06:59:38;;;;;;;0.00;0.00;;;3.70;56.40;;;;;;5051522;28;20036;-78
2021/11/17 07:02:05;;;;;;;0.00;0.00;;;3.80;56.10;;;;;;5050275;28;20467;-77
2021/11/17 07:04:35;;;;;;;0.05;0.05;;;4.00;55.80;;;;;;5051477;28;20104;-76
2021/11/17 07:07:01;;;;;;;0.00;0.00;;;4.20;55.50;;;;;;5050998;28;20123;-77
2021/11/17 07:09:27;;;;;;;0.00;0.00;;;4.30;55.20;;;;;;5052862;28;20087;-77
2021/11/17 07:11:52;;;;;;;0.05;0.00;;;4.50;55.00;;;;;;5051521;28;20025;-77
2021/11/17 07:14:21;;;;;;;0.00;0.00;;;4.70;54.80;;;;;;5052801;28;20087;-77
2021/11/17 07:16:48;;;;;;;0.10;0.00;;;4.80;54.60;;;;;;5052707;28;20025;-77
2021/11/17 07:19:14;;;;;;;0.20;0.10;;;5.00;54.30;;;;;;5052764;28;20021;-77
2021/11/17 07:21:43;;;;;;;0.00;0.00;;;5.20;54.00;;;;;;5052705;28;20056;-77
2021/11/17 07:24:10;;;;;;;0.10;0.10;;;5.40;53.70;;;;;;5052403;28;20031;-77
2021/11/17 07:26:37;;;;;;;0.00;0.00;;;5.70;53.50;;;;;;5053383;28;20029;-78
2021/11/17 07:29:03;;;;;;;0.00;0.00;;;5.90;53.10;;;;;;5056253;28;20025;-76
2021/11/17 07:31:29;;;;;;;0.00;0.00;;;6.20;52.80;;;;;;5056407;28;20029;-77
2021/11/17 07:33:54;;;;;;;0.00;0.00;;;6.60;52.60;;;;;;5056440;28;20104;-77
2021/11/17 07:36:21;;;;;;;0.00;0.00;;;7.00;52.20;;;;;;5055774;28;20053;-77
2021/11/17 07:38:47;;;;;;;0.10;0.10;;;7.60;52.00;;;;;;5055742;28;20017;-77
2021/11/17 07:41:13;;;;;;;0.00;0.00;;;8.10;51.60;;;;;;5054736;28;20033;-77
2021/11/17 07:43:39;;;;;;;0.00;0.00;;;8.70;51.30;;;;;;5052653;28;20404;-78
2021/11/17 07:46:05;;;;;;;0.38;0.08;;;9.40;51.00;;;;;;5055543;28;20029;-76
2021/11/17 07:48:32;;;;;;;0.00;0.00;;;10.20;50.20;;;;;;5055622;28;20032;-79
2021/11/17 07:50:59;;;;;;;0.00;0.00;;;11.10;49.10;;;;;;5054546;28;20033;-77
2021/11/17 07:53:28;;;;;;;0.00;0.00;;;11.80;47.80;;;;;;5053055;28;20470;-77
2021/11/17 07:55:55;;;;;;;0.00;0.00;;;12.60;46.30;;;;;;5055495;28;20074;-77
2021/11/17 07:58:24;;;;;;;0.00;0.00;;;13.30;45.00;;;;;;5055491;28;20024;-77
2021/11/17 08:00:54;;;;;;;0.00;0.00;;;14.10;43.50;;;;;;5055580;28;20057;-77
2021/11/17 08:03:22;;;;;;;0.00;0.00;;;14.80;42.00;;;;;;5055316;28;20116;-78
2021/11/17 08:05:50;;;;;;;0.00;0.00;;;15.50;40.60;;;;;;5055669;28;20394;-79
2021/11/17 08:08:17;;;;;;;0.00;0.00;;;16.10;39.00;;;;;;5054496;28;20043;-77
2021/11/17 08:10:43;;;;;;;0.00;0.00;;;16.40;37.40;;;;;;5055296;28;20463;-76
2021/11/17 08:13:09;;;;;;;0.00;0.00;;;16.80;36.20;;;;;;5055609;28;20037;-76
2021/11/17 08:15:36;;;;;;;0.00;0.00;;;17.20;35.20;;;;;;5055597;28;20100;-76
2021/11/17 08:18:02;;;;;;;0.00;0.00;;;17.70;34.40;;;;;;5053107;28;20021;-76
2021/11/17 08:20:28;;;;;;;0.00;0.00;;;18.20;33.70;;;;;;5055134;28;20379;-77
2021/11/17 08:22:58;;;;;;;0.00;0.00;;;18.70;33.10;;;;;;5054040;28;20043;-76
2021/11/17 08:25:26;;;;;;;0.00;0.00;;;19.00;32.40;;;;;;5055022;28;20371;-76
2021/11/17 08:27:52;;;;;;;0.00;0.00;;;19.30;32.00;;;;;;5054671;28;20044;-76
2021/11/17 08:30:21;;;;;;;0.00;0.00;;;19.50;31.50;;;;;;5055440;28;20039;-76
2021/11/17 08:32:46;;;;;;;0.00;0.00;;;19.90;30.90;;;;;;5054852;28;20025;-77
2021/11/17 08:35:17;;;;;;;0.00;0.00;;;20.20;30.50;;;;;;5051128;28;20403;-76
2021/11/17 08:37:43;;;;;;;0.00;0.00;;;20.50;30.00;;;;;;5054691;28;20052;-77
2021/11/17 08:40:22;;;;;;;0.00;0.00;;;20.80;29.90;;;;;;5054458;28;20450;-76
2021/11/17 08:42:48;;;;;;;0.00;0.00;;;20.80;29.10;;;;;;5053517;28;20108;-76
2021/11/17 08:45:14;;;;;;;0.00;0.00;;;21.00;29.30;;;;;;5053696;28;20125;-77
2021/11/17 08:47:41;;;;;;;0.00;0.00;;;21.10;29.10;;;;;;5054517;28;20033;-76
2021/11/17 08:50:11;;;;;;;0.00;0.00;;;21.40;28.90;;;;;;5054903;28;20036;-77
2021/11/17 08:52:36;;;;;;;0.00;0.00;;;21.70;28.60;;;;;;5054675;28;20108;-77
2021/11/17 08:55:03;;;;;;;0.00;0.00;;;22.10;28.50;;;;;;5054719;28;20446;-76
2021/11/17 08:57:28;;;;;;;0.00;0.00;;;22.30;28.20;;;;;;5054803;28;20150;-76
2021/11/17 08:59:54;;;;;;;0.00;0.00;;;22.50;27.90;;;;;;5054532;28;20059;-78
2021/11/17 09:02:21;;;;;;;0.00;0.00;;;22.70;28.00;;;;;;5054546;28;20024;-77
2021/11/17 09:04:48;;;;;;;0.00;0.00;;;22.80;27.60;;;;;;5054393;28;20039;-77
2021/11/17 09:07:14;;;;;;;0.00;0.00;;;23.00;27.60;;;;;;5054640;28;20025;-77
2021/11/17 09:09:41;;;;;;;0.00;0.00;;;23.00;27.40;;;;;;5054103;28;20025;-77
2021/11/17 09:12:08;;;;;;;0.00;0.00;;;23.10;27.30;;;;;;5055048;28;20094;-77
2021/11/17 09:14:34;;;;;;;0.00;0.00;;;23.20;27.30;;;;;;5054343;28;20086;-77
2021/11/17 09:17:00;;;;;;;0.00;0.00;;;23.30;27.10;;;;;;5053966;28;20416;-77
2021/11/17 09:19:27;;;;;;;0.00;0.00;;;23.40;27.10;;;;;;5054547;28;20029;-77
2021/11/17 09:21:53;;;;;;;0.00;0.00;;;23.40;27.00;;;;;;5054112;28;20132;-77
2021/11/17 09:24:21;;;;;;;0.00;0.00;;;23.40;27.00;;;;;;5053876;28;20032;-77
2021/11/17 09:26:49;;;;;;;0.00;0.00;;;23.40;26.80;;;;;;5053965;28;20029;-77
2021/11/17 09:29:15;;;;;;;0.00;0.00;;;23.50;26.80;;;;;;5054242;28;20029;-77
2021/11/17 09:31:45;;;;;;;0.00;0.00;;;23.70;26.70;;;;;;5053868;28;20033;-77
2021/11/17 09:34:11;;;;;;;0.00;0.00;;;23.90;26.70;;;;;;5053749;28;20471;-77
2021/11/17 09:36:38;;;;;;;0.00;0.00;;;24.10;26.80;;;;;;5052653;28;20542;-78
2021/11/17 09:39:07;;;;;;;0.00;0.00;;;24.40;26.70;;;;;;5053434;28;20028;-77
2021/11/17 09:41:42;;;;;;;0.00;0.00;;;24.60;26.50;;;;;;5053807;28;20029;-77
2021/11/17 09:44:32;;;;;;;0.00;0.00;;;24.90;26.40;;;;;;5053498;28;20455;-77
2021/11/17 09:47:00;;;;;;;0.00;0.00;;;25.10;26.20;;;;;;5049944;28;20028;-78
2021/11/17 09:49:55;;;;;;;0.00;0.00;;;25.40;26.20;;;;;;5053253;28;20029;-77
2021/11/17 09:52:34;;;;;;;;;;;25.50;26.00;;;;;;5054002;28;20029;-77
2021/11/17 09:55:14;;;;;;;0.00;0.00;;;26.00;27.00;;;;;;5051955;28;19911;-77
2021/11/17 09:57:44;;;;;;;0.00;0.00;;;26.40;26.20;;;;;;5053961;28;20031;-77
2021/11/17 10:00:17;;;;;;;0.00;0.00;;;26.50;26.10;;;;;;5052649;28;20029;-78
2021/11/17 10:03:08;;;;;;;0.00;0.00;;;26.50;26.00;;;;;;5052082;28;20530;-76
2021/11/17 10:14:17;;;;;;;0.00;0.00;;;26.60;25.60;;;;;;5053388;28;20469;-77
2021/11/17 10:16:43;;;;;;;0.00;0.00;;;26.70;25.60;;;;;;5052888;28;20082;-79
2021/11/17 10:19:27;;;;;;;0.00;0.00;;;26.80;25.70;;;;;;5053411;28;20032;-77
2021/11/17 10:22:08;;;;;;;0.10;0.05;;;26.70;25.60;;;;;;5053336;28;20025;-77
2021/11/17 10:24:48;;;;;;;0.00;0.00;;;26.80;25.60;;;;;;5052769;28;20064;-77
2021/11/17 10:27:23;;;;;;;0.00;0.00;;;27.00;25.50;;;;;;5053314;28;20375;-77
2021/11/17 10:30:05;;;;;;;0.00;0.00;;;27.10;25.60;;;;;;5052630;28;20422;-77
2021/11/17 10:32:39;;;;;;;0.00;0.00;;;27.10;25.60;;;;;;5053221;28;20029;-77
2021/11/17 10:35:27;;;;;;;0.10;0.00;;;27.20;25.50;;;;;;5053371;28;20162;-76
2021/11/17 10:38:11;;;;;;;0.00;0.00;;;27.50;25.50;;;;;;5053026;28;20348;-76
2021/11/17 10:41:04;;;;;;;0.00;0.00;;;28.00;25.50;;;;;;5052831;28;20083;-80
2021/11/17 10:43:48;;;;;;;0.00;0.00;;;28.10;25.40;;;;;;5050389;28;20496;-77
2021/11/17 10:46:20;;;;;;;0.00;0.00;;;28.10;25.30;;;;;;5053312;28;20040;-78
2021/11/17 10:48:57;;;;;;;0.00;0.00;;;28.00;25.20;;;;;;5053533;28;20021;-77
2021/11/17 10:51:36;;;;;;;0.22;0.00;;;28.00;25.20;;;;;;5052118;28;20028;-78
2021/11/17 10:54:10;;;;;;;0.00;0.00;;;28.00;25.20;;;;;;5052953;28;20037;-78
2021/11/17 10:56:37;;;;;;;;;;;27.90;25.20;;;;;;5053396;28;20029;-78
2021/11/17 10:59:04;;;;;;;0.00;0.00;;;28.10;25.80;;;;;;5053675;28;19948;-77
2021/11/17 11:01:37;;;;;;;0.00;0.00;;;28.30;25.40;;;;;;5053675;28;20032;-79
2021/11/17 11:04:22;;;;;;;0.00;0.00;;;28.30;25.20;;;;;;5053904;28;20155;-77
2021/11/17 11:07:09;;;;;;;0.00;0.00;;;28.10;25.10;;;;;;5056898;28;20163;-78
2021/11/17 11:09:46;;;;;;;0.00;0.00;;;28.00;25.20;;;;;;5057054;28;20079;-78
2021/11/17 11:12:17;;;;;;;0.00;0.00;;;27.90;25.10;;;;;;5056671;28;20096;-78
2021/11/17 11:15:06;;;;;;;0.00;0.00;;;27.90;25.10;;;;;;5056650;28;20438;-77
2021/11/17 11:18:10;;;;;;;0.00;0.00;;;27.80;25.10;;;;;;5056558;28;20470;-75
2021/11/17 11:20:48;;;;;;;0.00;0.00;;;27.80;25.20;;;;;;5056848;28;20048;-77
2021/11/17 11:23:56;;;;;;;0.00;0.00;;;27.90;25.30;;;;;;5056562;28;20523;-77
2021/11/17 11:26:24;;;;;;;0.00;0.00;;;28.10;25.20;;;;;;5055165;28;20102;-77
2021/11/17 11:28:59;;;;;;;0.00;0.00;;;28.20;25.30;;;;;;5056540;28;20024;-78
2021/11/17 11:31:47;;;;;;;0.00;0.00;;;28.20;25.10;;;;;;5055135;28;20047;-77
2021/11/17 11:34:12;;;;;;;0.00;0.00;;;28.30;25.10;;;;;;5056382;28;20060;-77
2021/11/17 11:36:46;;;;;;;0.00;0.00;;;28.30;25.10;;;;;;5055902;28;20017;-78
2021/11/17 11:45:49;;;;;;;0.00;0.00;;;28.40;25.20;;;;;;5035966;28;20044;-77
2021/11/17 11:48:23;;;;;;;0.00;0.00;;;28.30;25.20;;;;;;5036442;28;20048;-77
2021/11/17 11:51:05;;;;;;;0.00;0.00;;;28.20;25.20;;;;;;5035792;28;20018;-77
2021/11/17 11:53:55;;;;;;;0.00;0.00;;;27.90;25.20;;;;;;5036130;28;20021;-77
2021/11/17 11:56:36;;;;;;;0.00;0.00;;;27.60;25.30;;;;;;5035874;28;20114;-77
2021/11/17 11:59:12;;;;;;;0.00;0.00;;;27.10;25.50;;;;;;5036026;28;20033;-78
2021/11/17 12:01:38;;;;;;;0.00;0.00;;;26.80;25.60;;;;;;5034583;28;20018;-78
2021/11/17 12:04:10;;;;;;;0.00;0.00;;;26.90;25.70;;;;;;5034603;28;20083;-77
2021/11/17 12:06:46;;;;;;;0.00;0.00;;;27.00;25.70;;;;;;5035882;28;20168;-77
2021/11/17 12:09:34;;;;;;;0.00;0.00;;;26.90;25.70;;;;;;5034219;28;20028;-78
2021/11/17 12:12:21;;;;;;;0.00;0.00;;;26.80;25.90;;;;;;5034617;28;20021;-78
2021/11/17 12:14:55;;;;;;;0.00;0.00;;;26.90;25.80;;;;;;5034660;28;20029;-78
2021/11/17 12:17:26;;;;;;;0.00;0.00;;;27.00;25.70;;;;;;5035583;28;20033;-78
2021/11/17 12:19:57;;;;;;;0.00;0.00;;;26.90;25.70;;;;;;5034521;28;20036;-78
2021/11/17 12:22:44;;;;;;;0.00;0.00;;;26.90;25.70;;;;;;5034516;28;20077;-78
2021/11/17 12:25:29;;;;;;;0.00;0.00;;;27.00;25.70;;;;;;5034876;28;20032;-78
2021/11/17 12:28:00;;;;;;;0.30;0.00;;;26.90;25.60;;;;;;5034659;28;20055;-77
2021/11/17 12:30:59;;;;;;;0.00;0.00;;;26.90;25.80;;;;;;5034137;28;20037;-77
2021/11/17 12:33:35;;;;;;;0.00;0.00;;;26.80;25.80;;;;;;5022826;28;20087;-80
2021/11/17 12:36:04;;;;;;;0.00;0.00;;;26.80;25.80;;;;;;5035697;28;20119;-78
2021/11/17 12:38:34;;;;;;;0.00;0.00;;;26.70;25.90;;;;;;5035144;28;20071;-79
2021/11/17 12:41:08;;;;;;;0.00;0.00;;;26.50;25.90;;;;;;5033939;28;20124;-77
2021/11/17 12:43:39;;;;;;;0.00;0.00;;;26.30;25.90;;;;;;5033385;28;20021;-78
2021/11/17 12:46:22;;;;;;;0.00;0.00;;;26.10;26.00;;;;;;5035115;28;20041;-78
2021/11/17 12:48:51;;;;;;;0.15;0.00;;;25.90;26.00;;;;;;5034157;28;20032;-78
2021/11/17 12:51:26;;;;;;;0.00;0.00;;;25.60;26.00;;;;;;5035351;28;20044;-78
2021/11/17 12:53:54;;;;;;;0.00;0.00;;;25.30;26.10;;;;;;5034548;28;20032;-79
2021/11/17 12:56:43;;;;;;;0.00;0.00;;;25.00;26.30;;;;;;5034585;28;20094;-78
2021/11/17 12:59:36;;;;;;;0.00;0.00;;;24.80;26.30;;;;;;5034474;28;20029;-77
2021/11/17 13:02:21;;;;;;;0.00;0.00;;;24.60;26.50;;;;;;5034270;28;20061;-78
2021/11/17 13:04:52;;;;;;;0.00;0.00;;;24.50;26.60;;;;;;5034976;28;20687;-79
2021/11/17 13:07:41;;;;;;;0.00;0.00;;;24.20;26.60;;;;;;5033273;28;20033;-77
2021/11/17 13:10:07;;;;;;;0.00;0.00;;;23.70;26.70;;;;;;5034681;28;20061;-77
2021/11/17 13:12:36;;;;;;;0.00;0.00;;;23.30;27.00;;;;;;5034382;28;20057;-79
2021/11/17 13:15:05;;;;;;;0.00;0.00;;;22.80;27.10;;;;;;5033468;28;20057;-79
2021/11/17 13:17:33;;;;;;;0.00;0.00;;;22.30;27.40;;;;;;5034387;28;20096;-78
2021/11/17 13:20:21;;;;;;;0.00;0.00;;;21.80;27.60;;;;;;5034679;28;20410;-78
2021/11/17 13:22:51;;;;;;;0.00;0.00;;;21.30;27.90;;;;;;5024804;28;20037;-79
2021/11/17 13:25:27;;;;;;;0.00;0.00;;;20.60;28.20;;;;;;5033039;28;20494;-78
2021/11/17 13:28:03;;;;;;;0.00;0.00;;;19.90;28.70;;;;;;5034111;28;20037;-78
2021/11/17 13:30:38;;;;;;;0.00;0.00;;;19.30;29.30;;;;;;5034353;28;20079;-78
2021/11/17 13:33:50;;;;;;;0.00;0.00;;;18.80;29.60;;;;;;5032702;28;20030;-78
2021/11/17 13:36:16;;;;;;;0.00;0.00;;;18.20;30.00;;;;;;4951140;29;20122;-77
2021/11/17 13:38:58;;;;;;;0.00;0.00;;;17.80;30.30;;;;;;4953867;29;20106;-77
2021/11/17 13:41:24;;;;;;;0.00;0.00;;;17.20;30.90;;;;;;4990552;28;20501;-77
2021/11/17 13:43:49;;;;;;;0.00;0.00;;;16.60;31.40;;;;;;5033673;28;20025;-76
2021/11/17 13:46:18;;;;;;;0.00;0.00;;;16.10;32.10;;;;;;5030736;28;20083;-78
2021/11/17 13:48:44;;;;;;;0.00;0.00;;;15.60;32.60;;;;;;5030135;28;20021;-78
2021/11/17 13:51:13;;;;;;;0.00;0.00;;;15.20;33.10;;;;;;5016077;28;20406;-75
2021/11/17 13:53:41;;;;;;;0.00;0.00;;;14.80;33.70;;;;;;5028697;28;20041;-77
2021/11/17 13:56:24;;;;;;;0.05;0.05;;;14.30;34.30;;;;;;5032772;28;20080;-76
2021/11/17 13:58:52;;;;;;;0.00;0.00;;;13.80;35.20;;;;;;5031271;28;20537;-75
2021/11/17 14:01:18;;;;;;;0.00;0.00;;;13.10;35.70;;;;;;5031957;28;20025;-75
2021/11/17 14:03:44;;;;;;;0.00;0.00;;;12.50;36.50;;;;;;5031031;28;20025;-74
2021/11/17 14:06:13;;;;;;;0.10;0.10;;;12.00;37.30;;;;;;5033524;28;20061;-77
2021/11/17 14:08:39;;;;;;;0.00;0.00;;;11.50;38.10;;;;;;5032963;28;20104;-77
2021/11/17 14:11:06;;;;;;;0.00;0.00;;;11.00;38.70;;;;;;5025014;28;20155;-75
2021/11/17 14:13:32;;;;;;;0.00;0.00;;;10.60;39.60;;;;;;5015235;28;20030;-75
2021/11/17 14:15:59;;;;;;;0.00;0.00;;;10.10;40.30;;;;;;5013926;28;20114;-76
2021/11/17 14:18:26;;;;;;;0.00;0.00;;;9.60;41.20;;;;;;5032342;28;20022;-77
2021/11/17 14:20:52;;;;;;;0.00;0.00;;;9.20;41.00;;;;;;5033245;28;20025;-83
2021/11/17 14:23:18;;;;;;;0.00;0.00;;;8.80;41.80;;;;;;5029971;28;20072;-78
2021/11/17 14:25:45;;;;;;;0.00;0.00;;;8.40;42.00;;;;;;5033662;28;20033;-80
2021/11/17 14:28:20;;;;;;;0.00;0.00;;;8.10;41.80;;;;;;5029378;28;20040;-79
2021/11/17 14:31:00;;;;;;;0.08;0.00;;;7.80;42.00;;;;;;5031332;28;20076;-77
2021/11/17 14:33:31;;;;;;;0.00;0.00;;;7.50;44.10;;;;;;5033539;28;20057;-77
2021/11/17 14:36:00;;;;;;;0.00;0.00;;;7.30;43.60;;;;;;5033494;28;20056;-77
2021/11/17 14:38:26;;;;;;;0.00;0.00;;;7.00;44.70;;;;;;5033406;28;20079;-77
2021/11/17 14:40:53;;;;;;;0.00;0.00;;;6.80;46.10;;;;;;5033564;28;20091;-76
2021/11/17 14:43:22;;;;;;;0.00;0.00;;;6.60;47.40;;;;;;5033370;28;20025;-78
2021/11/17 14:45:49;;;;;;;0.08;0.08;;;6.40;48.20;;;;;;5032680;28;20030;-76
2021/11/17 14:48:15;;;;;;;0.10;0.10;;;6.20;48.80;;;;;;5018894;28;20050;-76
2021/11/17 14:50:43;;;;;;;0.00;0.00;;;6.00;48.40;;;;;;5012741;28;20080;-77
2021/11/17 14:53:10;;;;;;;0.28;0.10;;;6.00;48.90;;;;;;5013469;28;20025;-77
2021/11/17 14:55:36;;;;;;;0.00;0.00;;;5.90;48.90;;;;;;5013599;28;20542;-74
2021/11/17 14:58:02;;;;;;;0.00;0.00;;;5.80;48.30;;;;;;5013749;28;20145;-76
2021/11/17 15:00:32;;;;;;;0.00;0.00;;;5.70;47.90;;;;;;5013962;28;20030;-77
2021/11/17 15:02:58;;;;;;;0.05;0.05;;;5.60;47.80;;;;;;5013721;28;20022;-76
2021/11/17 15:05:26;;;;;;;0.00;0.00;;;5.50;47.70;;;;;;5013514;28;20044;-75
2021/11/17 15:07:53;;;;;;;0.43;0.10;;;5.40;47.70;;;;;;5011884;28;20026;-77
2021/11/17 15:10:20;;;;;;;0.00;0.00;;;5.30;47.80;;;;;;5013264;28;20075;-76
2021/11/17 15:12:45;;;;;;;0.28;0.10;;;5.30;49.40;;;;;;5013346;28;20088;-76
2021/11/17 15:15:36;;;;;;;0.00;0.00;;;5.10;50.00;;;;;;5013162;28;20406;-76
2021/11/17 15:18:03;;;;;;;0.00;0.00;;;5.00;49.70;;;;;;5013526;28;20036;-76
2021/11/17 15:20:29;;;;;;;0.00;0.00;;;4.90;49.30;;;;;;5013367;28;20375;-76
2021/11/17 15:22:55;;;;;;;0.00;0.00;;;4.80;50.70;;;;;;5013356;28;20025;-76
2021/11/17 15:25:28;;;;;;;0.00;0.00;;;4.80;51.20;;;;;;5013780;28;20025;-77
2021/11/17 15:28:10;;;;;;;0.00;0.00;;;4.70;50.70;;;;;;5013724;28;20045;-77
2021/11/17 15:30:39;;;;;;;0.00;0.00;;;4.70;52.10;;;;;;5013081;28;20026;-76
2021/11/17 15:33:05;;;;;;;0.00;0.00;;;4.60;51.80;;;;;;5013097;28;20463;-77
2021/11/17 15:35:32;;;;;;;0.00;0.00;;;4.50;52.50;;;;;;5013433;28;20042;-77
2021/11/17 15:38:02;;;;;;;0.00;0.00;;;4.50;52.70;;;;;;5012959;28;20021;-75
2021/11/17 15:40:33;;;;;;;0.00;0.00;;;4.40;53.30;;;;;;5012160;28;20025;-76
2021/11/17 15:42:59;;;;;;;0.00;0.00;;;4.40;53.40;;;;;;5013329;28;20455;-77
2021/11/17 15:49:05;;;;;;;0.00;0.00;;;4.30;52.50;;;;;;5035118;28;20036;-76
2021/11/17 15:51:39;;;;;;;0.00;0.00;;;4.30;52.10;;;;;;5016671;28;20034;-76
2021/11/17 15:54:05;;;;;;;0.00;0.00;;;4.30;51.80;;;;;;5021955;28;20760;-77
2021/11/17 15:56:32;;;;;;;0.00;0.00;;;4.30;51.70;;;;;;5033254;28;20026;-75
2021/11/17 15:58:59;;;;;;;0.00;0.00;;;4.30;51.60;;;;;;5034213;28;20021;-76
2021/11/17 16:01:25;;;;;;;0.00;0.00;;;4.20;51.70;;;;;;5034874;28;20033;-79
2021/11/17 16:03:54;;;;;;;0.00;0.00;;;4.20;53.00;;;;;;5033897;28;20031;-81
2021/11/17 16:06:23;;;;;;;0.00;0.00;;;4.30;53.60;;;;;;5035074;28;20026;-82
2021/11/17 16:08:49;;;;;;;0.00;0.00;;;4.20;54.30;;;;;;5034719;28;20052;-78
2021/11/17 16:11:16;;;;;;;0.00;0.00;;;4.20;54.40;;;;;;5033617;28;20064;-79
2021/11/17 16:13:44;;;;;;;0.03;0.03;;;4.10;53.90;;;;;;5035005;28;20089;-84
2021/11/17 16:16:10;;;;;;;0.00;0.00;;;4.00;53.50;;;;;;5034168;28;20072;-83